Time;durP1;ratioP1;P1;durP2;ratioP2;P2;SDS_P1;SDS_P2;PMS_P1;PMS_P2;Temp;Humidity;BMP_temperature;BMP_pressure;BME280_temperature;BME280_humidity;BME280_pressure;Samples;Min_cycle;Max_cycle;Signal;HPM_P1;HPM_P2
2023/06/10 00:00:23;;;;;;;10.60;6.13;;;21.70;99.90;;;;;;6249891;23;20506;-81
2023/06/10 00:02:50;;;;;;;6.70;6.10;;;21.70;99.90;;;;;;6249010;23;20425;-81
2023/06/10 00:05:21;;;;;;;6.53;5.93;;;21.70;99.90;;;;;;6251335;23;20406;-81
2023/06/10 00:07:49;;;;;;;7.17;6.33;;;21.70;99.90;;;;;;6250713;23;20454;-81
2023/06/10 00:10:16;;;;;;;6.43;5.83;;;21.60;99.90;;;;;;6250861;23;20511;-81
2023/06/10 00:12:44;;;;;;;6.50;5.90;;;21.50;99.90;;;;;;6250081;23;20462;-81
2023/06/10 00:15:11;;;;;;;6.83;6.13;;;21.50;99.90;;;;;;6249285;23;20487;-81
2023/06/10 00:17:38;;;;;;;6.73;5.77;;;21.50;1.00;;;;;;6250816;23;20427;-81
2023/06/10 00:20:08;;;;;;;6.70;6.10;;;21.40;99.90;;;;;;6250753;23;20550;-81
2023/06/10 00:22:35;;;;;;;6.20;5.60;;;21.40;1.00;;;;;;6250026;23;20426;-80
2023/06/10 00:25:03;;;;;;;6.40;5.80;;;21.30;1.00;;;;;;6250837;23;20496;-80
2023/06/10 00:27:34;;;;;;;6.40;5.70;;;21.30;1.00;;;;;;6249973;23;20418;-81
2023/06/10 00:30:04;;;;;;;7.33;6.73;;;21.20;1.00;;;;;;6249840;23;20427;-80
2023/06/10 00:32:31;;;;;;;6.43;5.83;;;21.20;1.00;;;;;;6249261;23;20999;-81
2023/06/10 00:34:57;;;;;;;10.73;6.00;;;21.20;1.00;;;;;;6250069;23;20498;-80
2023/06/10 00:37:24;;;;;;;6.70;6.00;;;21.10;1.00;;;;;;6250445;23;20468;-80
2023/06/10 00:39:51;;;;;;;8.37;5.83;;;21.10;1.00;;;;;;6249578;23;20463;-81
2023/06/10 00:42:19;;;;;;;7.50;6.57;;;21.10;1.00;;;;;;6249319;23;20476;-80
2023/06/10 00:44:45;;;;;;;7.80;5.97;;;21.10;1.00;;;;;;6249447;23;20446;-80
2023/06/10 00:47:14;;;;;;;8.13;7.20;;;21.10;1.00;;;;;;6249648;23;20451;-80
2023/06/10 00:49:41;;;;;;;9.57;6.40;;;21.10;1.00;;;;;;6249789;23;20956;-80
2023/06/10 00:52:10;;;;;;;7.07;6.37;;;21.10;1.00;;;;;;6249582;23;20536;-80
2023/06/10 00:54:37;;;;;;;7.07;6.17;;;21.00;1.00;;;;;;6249681;23;20415;-80
2023/06/10 00:57:06;;;;;;;8.70;6.03;;;21.00;1.00;;;;;;6249981;23;20410;-80
2023/06/10 00:59:33;;;;;;;7.13;6.20;;;21.00;1.00;;;;;;6250136;23;20431;-80
2023/06/10 01:02:00;;;;;;;8.00;7.13;;;21.00;1.00;;;;;;6250287;22;20415;-80
2023/06/10 01:04:28;;;;;;;9.60;7.17;;;20.90;1.00;;;;;;6249064;23;20406;-80
2023/06/10 01:07:09;;;;;;;6.97;6.30;;;20.90;1.00;;;;;;6250671;23;20415;-80
2023/06/10 01:09:42;;;;;;;7.10;6.10;;;20.90;1.00;;;;;;6250669;23;20918;-80
2023/06/10 01:12:17;;;;;;;6.80;6.10;;;20.90;1.00;;;;;;6251331;23;20479;-80
2023/06/10 01:14:45;;;;;;;7.77;6.97;;;20.90;1.00;;;;;;6250383;23;20399;-79
2023/06/10 01:17:12;;;;;;;8.97;7.10;;;20.80;1.00;;;;;;6252401;23;20399;-79
2023/06/10 01:19:43;;;;;;;7.70;7.00;;;20.80;1.00;;;;;;6251079;23;20420;-80
2023/06/10 01:22:15;;;;;;;6.77;6.17;;;20.80;1.00;;;;;;6252806;23;20498;-80
2023/06/10 01:24:43;;;;;;;7.67;6.63;;;20.80;1.00;;;;;;6249372;23;20418;-80
2023/06/10 01:27:15;;;;;;;7.03;5.83;;;20.80;1.00;;;;;;6250645;23;20506;-80
2023/06/10 01:29:46;;;;;;;7.30;6.57;;;20.80;1.00;;;;;;6249788;23;20453;-80
2023/06/10 01:32:17;;;;;;;7.43;6.23;;;20.80;1.00;;;;;;6249415;23;20427;-79
2023/06/10 01:34:45;;;;;;;8.57;7.77;;;20.70;1.00;;;;;;6249309;23;20475;-80
2023/06/10 01:37:17;;;;;;;8.83;5.87;;;20.70;1.00;;;;;;6249894;23;20412;-80
2023/06/10 01:39:44;;;;;;;6.97;6.37;;;20.60;1.00;;;;;;6249838;23;20482;-80
2023/06/10 01:42:12;;;;;;;7.10;6.40;;;20.60;1.00;;;;;;6248981;23;20407;-80
2023/06/10 01:44:41;;;;;;;6.63;6.03;;;20.60;1.00;;;;;;6250942;23;20507;-79
2023/06/10 01:47:08;;;;;;;6.83;6.23;;;20.60;1.00;;;;;;6252071;23;20404;-81
2023/06/10 01:49:35;;;;;;;8.13;6.70;;;20.50;1.00;;;;;;6249423;23;20430;-81
2023/06/10 01:52:02;;;;;;;7.80;7.10;;;20.50;1.00;;;;;;6249231;23;20522;-80
2023/06/10 01:54:31;;;;;;;7.20;6.50;;;20.50;1.00;;;;;;6248287;23;20408;-80
2023/06/10 01:56:57;;;;;;;8.63;6.57;;;20.50;1.00;;;;;;6249503;23;20411;-80
2023/06/10 01:59:24;;;;;;;8.40;7.60;;;20.40;1.00;;;;;;6248421;23;20427;-80
2023/06/10 02:01:51;;;;;;;8.83;7.20;;;20.40;1.00;;;;;;6248697;23;20499;-80
2023/06/10 02:04:18;;;;;;;10.00;7.13;;;20.40;1.00;;;;;;6248832;23;20795;-80
2023/06/10 02:06:45;;;;;;;7.90;7.20;;;20.30;1.00;;;;;;6248520;23;20730;-80
2023/06/10 02:09:12;;;;;;;7.90;7.20;;;20.30;1.00;;;;;;6249545;23;20432;-80
2023/06/10 02:11:40;;;;;;;8.40;7.60;;;20.30;1.00;;;;;;6248586;23;20450;-80
2023/06/10 02:14:07;;;;;;;8.70;7.80;;;20.30;1.00;;;;;;6247578;23;20414;-79
2023/06/10 02:16:33;;;;;;;9.07;8.20;;;20.30;1.00;;;;;;6248427;23;20412;-81
2023/06/10 02:19:00;;;;;;;8.87;8.00;;;20.20;1.00;;;;;;6249871;23;20463;-81
2023/06/10 02:21:27;;;;;;;8.30;7.47;;;20.20;1.00;;;;;;6249523;23;20491;-81
2023/06/10 02:23:54;;;;;;;11.13;8.07;;;20.10;1.00;;;;;;6247987;23;20412;-82
2023/06/10 02:26:21;;;;;;;9.40;8.40;;;20.10;7.40;;;;;;6249253;23;20799;-81
2023/06/10 02:28:49;;;;;;;8.93;8.17;;;20.10;58.80;;;;;;6248964;23;20495;-82
2023/06/10 02:31:18;;;;;;;12.73;9.77;;;20.10;99.90;;;;;;6248888;23;20414;-82
2023/06/10 02:33:44;;;;;;;10.80;8.07;;;20.00;82.40;;;;;;6248894;23;20408;-82
2023/06/10 02:36:13;;;;;;;9.23;8.20;;;19.90;99.90;;;;;;6248725;23;20408;-82
2023/06/10 02:38:40;;;;;;;11.07;9.60;;;19.90;99.90;;;;;;6249720;23;20758;-82
2023/06/10 02:41:06;;;;;;;12.07;9.40;;;19.90;99.90;;;;;;6249603;23;20400;-81
2023/06/10 02:43:33;;;;;;;10.13;9.17;;;19.90;99.90;;;;;;6247356;23;20446;-82
2023/06/10 02:46:01;;;;;;;10.07;9.10;;;19.90;99.90;;;;;;6248915;23;20422;-82
2023/06/10 02:48:29;;;;;;;10.27;9.37;;;19.90;99.90;;;;;;6249415;23;20490;-82
2023/06/10 02:50:56;;;;;;;10.40;9.30;;;19.80;99.90;;;;;;6249382;23;20439;-81
2023/06/10 02:53:23;;;;;;;11.33;8.90;;;19.80;99.90;;;;;;6248208;23;20443;-82
2023/06/10 02:55:49;;;;;;;10.87;9.17;;;19.80;99.90;;;;;;6248612;23;20470;-81
2023/06/10 02:58:16;;;;;;;10.47;9.40;;;19.80;99.90;;;;;;6248884;23;20418;-81
2023/06/10 03:00:43;;;;;;;10.77;9.77;;;19.70;99.90;;;;;;6247976;23;20514;-81
2023/06/10 03:03:12;;;;;;;10.93;9.87;;;19.70;99.90;;;;;;6248298;23;20416;-81
2023/06/10 03:05:40;;;;;;;11.27;9.63;;;19.60;99.90;;;;;;6248733;23;20412;-81
2023/06/10 03:08:06;;;;;;;11.13;10.03;;;19.60;99.90;;;;;;6249380;23;20454;-81
2023/06/10 03:10:33;;;;;;;11.33;10.23;;;19.60;99.90;;;;;;6248428;23;20818;-82
2023/06/10 03:13:00;;;;;;;11.00;9.87;;;19.60;99.90;;;;;;6250100;23;20497;-81
2023/06/10 03:15:28;;;;;;;11.10;10.00;;;19.60;99.90;;;;;;6250502;23;20490;-82
2023/06/10 03:17:55;;;;;;;13.10;10.60;;;19.50;99.90;;;;;;6251581;23;20412;-82
2023/06/10 03:20:25;;;;;;;12.30;10.40;;;19.50;99.90;;;;;;6250923;23;20430;-82
2023/06/10 03:22:52;;;;;;;11.80;10.70;;;19.50;99.90;;;;;;6250260;23;20413;-82
2023/06/10 03:25:20;;;;;;;11.50;10.30;;;19.50;99.90;;;;;;6252069;23;20420;-82
2023/06/10 03:27:47;;;;;;;10.73;9.43;;;19.50;99.90;;;;;;6251546;23;20446;-82
2023/06/10 03:30:15;;;;;;;11.70;10.60;;;19.50;99.90;;;;;;6251091;23;20438;-82
2023/06/10 03:32:41;;;;;;;12.57;10.10;;;19.50;1.00;;;;;;6250518;23;20534;-82
2023/06/10 03:35:09;;;;;;;11.33;10.33;;;19.40;1.00;;;;;;6251342;23;20412;-82
2023/06/10 03:37:37;;;;;;;10.90;9.80;;;19.40;1.00;;;;;;6251372;23;20956;-82
2023/06/10 03:40:05;;;;;;;10.80;9.70;;;19.40;1.00;;;;;;6250438;23;20424;-82
2023/06/10 03:42:32;;;;;;;12.20;11.00;;;19.40;1.00;;;;;;6248484;23;20781;-82
2023/06/10 03:44:59;;;;;;;12.10;11.00;;;19.40;1.00;;;;;;6248559;23;20407;-82
2023/06/10 03:47:26;;;;;;;11.30;10.30;;;19.40;1.00;;;;;;6250441;23;20408;-79
2023/06/10 03:49:53;;;;;;;11.07;9.97;;;19.30;1.00;;;;;;6250824;23;20834;-82
2023/06/10 03:52:23;;;;;;;11.37;10.30;;;19.40;1.00;;;;;;6251162;23;20450;-81
2023/06/10 03:54:51;;;;;;;12.10;10.20;;;19.40;1.00;;;;;;6250650;23;20832;-81
2023/06/10 03:57:18;;;;;;;11.13;9.77;;;19.40;1.00;;;;;;6252302;23;20438;-81
2023/06/10 03:59:44;;;;;;;10.43;9.43;;;19.30;1.00;;;;;;6252952;23;20510;-81
2023/06/10 04:02:11;;;;;;;11.70;10.47;;;19.30;1.00;;;;;;6256764;23;20415;-81
2023/06/10 04:04:38;;;;;;;12.30;10.50;;;19.30;1.00;;;;;;6254776;23;20887;-81
2023/06/10 04:07:06;;;;;;;11.23;10.07;;;19.30;1.00;;;;;;6254296;23;20407;-81
2023/06/10 04:09:33;;;;;;;11.07;8.97;;;19.30;1.00;;;;;;6253822;23;20484;-81
2023/06/10 04:12:01;;;;;;;10.20;9.23;;;19.30;99.90;;;;;;6253996;23;20514;-82
2023/06/10 04:14:28;;;;;;;12.20;9.70;;;19.30;99.90;;;;;;6252679;23;20411;-80
2023/06/10 04:16:55;;;;;;;10.20;9.20;;;19.40;99.90;;;;;;6255570;23;20442;-81
2023/06/10 04:19:22;;;;;;;8.37;7.57;;;19.30;99.90;;;;;;6253337;23;20423;-81
2023/06/10 04:21:49;;;;;;;12.23;9.50;;;19.40;99.90;;;;;;6252561;23;20425;-81
2023/06/10 04:24:16;;;;;;;9.70;8.30;;;19.30;99.90;;;;;;6252156;23;20483;-81
2023/06/10 04:26:42;;;;;;;11.53;7.90;;;19.30;99.90;;;;;;6254365;23;20396;-82
2023/06/10 04:29:10;;;;;;;9.40;8.43;;;19.30;99.90;;;;;;6253540;23;21036;-81
2023/06/10 04:31:37;;;;;;;7.80;7.00;;;19.30;99.90;;;;;;6253047;23;20486;-80
2023/06/10 04:34:04;;;;;;;9.40;8.37;;;19.30;99.90;;;;;;6252160;23;20442;-81
2023/06/10 04:36:31;;;;;;;7.80;7.10;;;19.20;99.90;;;;;;6253646;23;20408;-80
2023/06/10 04:38:58;;;;;;;9.20;8.27;;;19.30;99.90;;;;;;6253638;23;20427;-80
2023/06/10 04:41:25;;;;;;;8.37;7.57;;;19.40;99.90;;;;;;6253715;23;20436;-80
2023/06/10 04:43:53;;;;;;;8.33;7.53;;;19.40;99.90;;;;;;6251849;23;20430;-80
2023/06/10 04:46:21;;;;;;;9.13;7.70;;;19.40;99.90;;;;;;6252054;23;20495;-78
2023/06/10 04:48:48;;;;;;;13.20;6.67;;;19.40;99.90;;;;;;6253584;23;20522;-81
2023/06/10 04:51:15;;;;;;;7.40;6.67;;;19.50;99.90;;;;;;6253785;23;20471;-80
2023/06/10 04:53:41;;;;;;;12.13;8.20;;;19.50;54.70;;;;;;6252075;23;20482;-81
2023/06/10 04:56:08;;;;;;;8.30;6.93;;;19.50;58.20;;;;;;6253214;23;20414;-80
2023/06/10 04:58:35;;;;;;;10.77;6.50;;;19.50;65.10;;;;;;6252937;23;20411;-81
2023/06/10 05:01:02;;;;;;;7.10;6.13;;;19.60;34.00;;;;;;6251788;23;20989;-79
2023/06/10 05:03:31;;;;;;;9.47;7.37;;;19.60;52.90;;;;;;6250507;22;20426;-81
2023/06/10 05:05:58;;;;;;;7.60;6.87;;;19.70;41.30;;;;;;6224611;23;20921;-79
2023/06/10 05:08:24;;;;;;;8.43;7.30;;;19.70;47.10;;;;;;6251303;23;20552;-79
2023/06/10 05:10:51;;;;;;;7.93;7.07;;;19.80;45.60;;;;;;6251058;23;20482;-79
2023/06/10 05:13:18;;;;;;;10.87;7.00;;;19.80;59.00;;;;;;6250428;23;20522;-79
2023/06/10 05:15:46;;;;;;;9.83;7.37;;;19.80;38.90;;;;;;6251492;23;20901;-80
2023/06/10 05:18:13;;;;;;;7.90;7.00;;;19.80;43.80;;;;;;6251680;23;20418;-79
2023/06/10 05:20:41;;;;;;;7.53;6.73;;;19.80;33.50;;;;;;6252717;23;20462;-79
2023/06/10 05:23:08;;;;;;;8.83;7.80;;;19.90;3.30;;;;;;6251598;23;20412;-79
2023/06/10 05:25:35;;;;;;;8.30;7.50;;;19.90;1.00;;;;;;6252605;23;20415;-79
2023/06/10 05:28:02;;;;;;;8.30;7.50;;;19.90;1.00;;;;;;6252752;23;20897;-79
2023/06/10 05:30:29;;;;;;;10.27;7.60;;;20.00;1.00;;;;;;6251873;23;20946;-78
2023/06/10 05:32:57;;;;;;;10.23;7.60;;;20.00;1.00;;;;;;6251730;23;20535;-79
2023/06/10 05:35:24;;;;;;;9.33;7.70;;;20.10;1.00;;;;;;6251259;23;20407;-79
2023/06/10 05:38:02;;;;;;;8.57;6.63;;;20.10;1.00;;;;;;6250586;23;20407;-80
2023/06/10 05:41:01;;;;;;;7.37;6.67;;;20.10;1.00;;;;;;6248185;23;20497;-77
2023/06/10 05:43:31;;;;;;;7.87;6.70;;;20.20;1.00;;;;;;6251685;23;20935;-80
2023/06/10 05:46:03;;;;;;;7.40;6.13;;;20.20;1.00;;;;;;6251949;23;20515;-79
2023/06/10 05:52:06;;;;;;;7.70;6.23;;;20.30;1.00;;;;;;6225447;23;20395;-81
2023/06/10 05:54:34;;;;;;;7.83;6.03;;;20.30;1.00;;;;;;6252577;23;20403;-82
2023/06/10 05:57:01;;;;;;;7.23;6.37;;;20.30;1.00;;;;;;6254360;23;20408;-82
2023/06/10 05:59:27;;;;;;;7.90;6.00;;;20.40;1.00;;;;;;6252467;23;20487;-80
2023/06/10 06:01:56;;;;;;;8.00;7.20;;;20.40;1.00;;;;;;6252282;22;20442;-80
2023/06/10 06:04:22;;;;;;;6.97;5.80;;;20.40;1.00;;;;;;6249966;23;20901;-80
2023/06/10 06:06:49;;;;;;;6.67;5.70;;;20.50;1.00;;;;;;6250133;23;20498;-80
2023/06/10 06:09:16;;;;;;;7.87;6.50;;;20.60;1.00;;;;;;6249333;23;20459;-80
2023/06/10 06:11:44;;;;;;;6.13;5.53;;;20.70;1.00;;;;;;6250003;23;20479;-80
2023/06/10 06:14:11;;;;;;;7.33;6.10;;;20.70;1.00;;;;;;6248520;23;20435;-80
2023/06/10 06:16:38;;;;;;;9.17;6.13;;;20.80;1.00;;;;;;6250045;23;20749;-80
2023/06/10 06:19:05;;;;;;;9.00;6.87;;;20.80;1.00;;;;;;6249540;23;20491;-80
2023/06/10 06:21:32;;;;;;;7.73;6.13;;;20.90;1.00;;;;;;6249467;23;20766;-81
2023/06/10 06:24:00;;;;;;;9.30;6.23;;;20.90;1.00;;;;;;6249380;23;20483;-80
2023/06/10 06:26:27;;;;;;;7.80;5.90;;;21.00;1.00;;;;;;6250615;23;20442;-80
2023/06/10 06:28:55;;;;;;;6.70;5.27;;;21.10;1.00;;;;;;6250196;23;20434;-80
2023/06/10 06:31:22;;;;;;;5.77;5.17;;;21.10;1.00;;;;;;6249255;23;20502;-81
2023/06/10 06:33:48;;;;;;;5.77;4.43;;;21.20;1.00;;;;;;6248286;23;20835;-80
2023/06/10 06:36:15;;;;;;;8.70;5.20;;;21.20;1.00;;;;;;6250262;23;20474;-80
2023/06/10 06:38:42;;;;;;;6.00;5.37;;;21.30;1.00;;;;;;6249600;23;20418;-80
2023/06/10 06:41:09;;;;;;;6.13;5.30;;;21.40;1.00;;;;;;6250051;23;20496;-81
2023/06/10 06:43:36;;;;;;;6.60;5.57;;;21.40;1.00;;;;;;6248479;23;20543;-80
2023/06/10 06:46:04;;;;;;;7.50;6.10;;;21.50;1.00;;;;;;6249633;23;20452;-80
2023/06/10 06:48:30;;;;;;;6.07;5.27;;;21.60;1.00;;;;;;6249578;23;20917;-80
2023/06/10 06:50:58;;;;;;;6.60;4.77;;;21.70;1.00;;;;;;6250545;23;20514;-80
2023/06/10 06:53:25;;;;;;;6.33;5.23;;;21.80;1.00;;;;;;6249205;23;20783;-80
2023/06/10 06:55:52;;;;;;;8.60;4.70;;;21.80;1.00;;;;;;6250123;23;20422;-80
2023/06/10 06:58:18;;;;;;;6.70;4.57;;;21.90;1.00;;;;;;6250466;23;20418;-80
2023/06/10 07:00:45;;;;;;;7.53;5.40;;;22.00;1.00;;;;;;6248754;23;20514;-80
2023/06/10 07:03:14;;;;;;;6.50;5.07;;;22.10;1.00;;;;;;6248773;22;20502;-80
2023/06/10 07:05:40;;;;;;;6.60;4.83;;;22.10;1.00;;;;;;6250186;23;20455;-80
2023/06/10 07:08:07;;;;;;;6.40;4.47;;;22.20;1.00;;;;;;6250445;23;20466;-80
2023/06/10 07:10:34;;;;;;;6.03;4.67;;;22.20;1.00;;;;;;6249666;23;20432;-80
2023/06/10 07:13:01;;;;;;;6.60;4.80;;;22.30;1.00;;;;;;6248800;23;20478;-80
2023/06/10 07:15:28;;;;;;;6.17;4.37;;;22.50;1.00;;;;;;6249640;23;20412;-80
2023/06/10 07:17:55;;;;;;;8.00;4.70;;;22.50;1.00;;;;;;6249023;23;20491;-80
2023/06/10 07:20:23;;;;;;;8.90;4.60;;;22.60;1.00;;;;;;6249486;23;20513;-80
2023/06/10 07:22:50;;;;;;;6.43;4.70;;;22.70;1.00;;;;;;6249038;23;20490;-80
2023/06/10 07:25:17;;;;;;;7.13;5.20;;;22.80;1.00;;;;;;6249360;23;20407;-80
2023/06/10 07:27:44;;;;;;;5.13;4.40;;;22.90;1.00;;;;;;6249987;23;20411;-80
2023/06/10 07:30:11;;;;;;;6.90;4.60;;;23.00;1.00;;;;;;6249674;23;20428;-80
2023/06/10 07:32:38;;;;;;;6.33;5.07;;;23.00;1.00;;;;;;6248832;23;20745;-80
2023/06/10 07:35:09;;;;;;;7.13;4.43;;;23.10;1.00;;;;;;6250628;23;20485;-81
2023/06/10 07:37:37;;;;;;;6.93;4.70;;;23.20;1.00;;;;;;6249804;23;20396;-81
2023/06/10 07:40:04;;;;;;;5.70;4.50;;;23.30;1.00;;;;;;6250002;23;20442;-82
2023/06/10 07:42:32;;;;;;;5.47;4.33;;;23.30;1.00;;;;;;6250471;23;20439;-81
2023/06/10 07:44:59;;;;;;;8.80;5.50;;;23.40;1.00;;;;;;6248925;23;20435;-81
2023/06/10 07:47:26;;;;;;;6.50;5.43;;;23.50;1.00;;;;;;6250102;23;20498;-81
2023/06/10 07:49:53;;;;;;;8.40;4.43;;;23.60;1.00;;;;;;6250804;23;20467;-82
2023/06/10 07:52:20;;;;;;;9.70;4.30;;;23.70;1.00;;;;;;6250295;23;20408;-83
2023/06/10 07:54:48;;;;;;;5.60;4.17;;;23.80;1.00;;;;;;6249179;23;20542;-83
2023/06/10 07:57:16;;;;;;;6.00;4.23;;;23.90;1.00;;;;;;6251177;23;20439;-82
2023/06/10 07:59:44;;;;;;;5.53;4.70;;;24.00;1.00;;;;;;6252984;23;20435;-81
2023/06/10 08:02:10;;;;;;;5.27;4.50;;;24.10;99.90;;;;;;6254109;23;20437;-82
2023/06/10 08:04:37;;;;;;;6.97;4.83;;;24.10;99.90;;;;;;6253044;23;20394;-82
2023/06/10 08:07:05;;;;;;;8.77;4.10;;;24.20;99.90;;;;;;6254275;23;20472;-81
2023/06/10 08:09:31;;;;;;;6.83;4.97;;;24.30;99.90;;;;;;6252715;23;20487;-82
2023/06/10 08:11:59;;;;;;;5.30;4.03;;;24.40;99.90;;;;;;6253146;23;20890;-82
2023/06/10 08:14:26;;;;;;;5.50;4.33;;;24.50;99.90;;;;;;6251315;23;20443;-81
2023/06/10 08:16:53;;;;;;;8.83;5.20;;;24.70;99.90;;;;;;6253474;23;20470;-81
2023/06/10 08:19:20;;;;;;;8.20;3.83;;;24.80;99.90;;;;;;6254402;23;20768;-81
2023/06/10 08:21:47;;;;;;;6.43;4.20;;;25.00;99.90;;;;;;6253048;23;20415;-82
2023/06/10 08:24:16;;;;;;;7.20;4.70;;;25.20;99.90;;;;;;6252700;23;20436;-81
2023/06/10 08:26:42;;;;;;;7.60;4.60;;;25.30;99.90;;;;;;6254528;23;20411;-81
2023/06/10 08:29:13;;;;;;;5.80;3.73;;;25.40;99.90;;;;;;6254023;23;20507;-82
2023/06/10 08:31:42;;;;;;;6.53;4.10;;;25.60;99.90;;;;;;6254736;23;20431;-82
2023/06/10 08:34:09;;;;;;;5.20;3.83;;;25.70;99.90;;;;;;6253487;23;20439;-82
2023/06/10 08:36:36;;;;;;;5.50;3.90;;;25.80;99.90;;;;;;6253833;23;20494;-82
2023/06/10 08:39:03;;;;;;;7.27;4.30;;;26.00;99.90;;;;;;6253794;23;20501;-81
2023/06/10 08:41:35;;;;;;;5.90;4.20;;;26.10;99.90;;;;;;6253436;23;20510;-82
2023/06/10 08:44:09;;;;;;;6.07;5.00;;;26.20;99.90;;;;;;6250627;23;20399;-82
2023/06/10 08:46:38;;;;;;;10.83;5.30;;;26.40;99.90;;;;;;6254058;23;20475;-82
2023/06/10 08:49:07;;;;;;;5.30;4.33;;;26.60;99.90;;;;;;6253007;23;20487;-81
2023/06/10 08:51:36;;;;;;;6.40;4.40;;;26.70;99.90;;;;;;6252674;23;20494;-81
2023/06/10 08:54:06;;;;;;;5.67;4.10;;;27.20;99.90;;;;;;6251813;23;20452;-81
2023/06/10 08:56:39;;;;;;;6.07;4.77;;;27.70;99.90;;;;;;6252313;23;20953;-81
2023/06/10 08:59:07;;;;;;;7.13;4.60;;;28.10;99.90;;;;;;6252781;23;20427;-81
2023/06/10 09:01:34;;;;;;;5.20;4.20;;;28.30;99.90;;;;;;6252769;23;20411;-81
2023/06/10 09:04:02;;;;;;;5.80;4.53;;;28.40;99.90;;;;;;6250001;23;20416;-82
2023/06/10 09:06:29;;;;;;;6.63;5.33;;;28.50;99.90;;;;;;6251502;23;20411;-82
2023/06/10 09:08:58;;;;;;;7.53;4.67;;;28.50;99.90;;;;;;6251466;23;20430;-81
2023/06/10 09:11:26;;;;;;;6.70;4.50;;;28.50;99.90;;;;;;6253154;23;20425;-82
2023/06/10 09:13:53;;;;;;;5.93;5.00;;;28.60;99.90;;;;;;6252011;23;20444;-81
2023/06/10 09:16:20;;;;;;;6.77;3.93;;;28.50;99.90;;;;;;6251700;23;20447;-82
2023/06/10 09:18:47;;;;;;;7.23;4.47;;;28.60;99.90;;;;;;6253123;23;20432;-82
2023/06/10 09:21:15;;;;;;;7.77;4.90;;;28.50;99.90;;;;;;6252974;23;20495;-82
2023/06/10 09:23:43;;;;;;;5.83;4.17;;;28.60;99.90;;;;;;6250777;23;20408;-81
2023/06/10 09:26:11;;;;;;;4.70;4.30;;;28.60;99.90;;;;;;6252679;23;20412;-82
2023/06/10 09:28:39;;;;;;;6.50;5.53;;;28.80;99.90;;;;;;6251691;23;20431;-82
2023/06/10 09:31:07;;;;;;;6.20;4.57;;;28.90;99.90;;;;;;6252104;23;20415;-82
2023/06/10 09:33:37;;;;;;;7.90;4.90;;;29.00;99.90;;;;;;6249547;23;20451;-82
2023/06/10 09:36:04;;;;;;;7.30;4.03;;;29.10;99.90;;;;;;6252210;23;20411;-81
2023/06/10 09:38:34;;;;;;;6.20;4.10;;;29.30;99.90;;;;;;6250755;23;20917;-81
2023/06/10 09:41:01;;;;;;;5.00;4.40;;;29.50;99.90;;;;;;6251419;23;20475;-82
2023/06/10 09:43:43;;;;;;;4.83;4.23;;;29.50;99.90;;;;;;6248022;23;20835;-81
2023/06/10 09:46:17;;;;;;;7.53;4.50;;;29.70;99.90;;;;;;6249963;23;20399;-81
2023/06/10 09:48:45;;;;;;;4.80;3.80;;;29.80;99.90;;;;;;6249963;23;20399;-81
2023/06/10 09:51:12;;;;;;;5.70;4.23;;;30.00;99.90;;;;;;6251045;23;20718;-82
2023/06/10 09:53:42;;;;;;;6.63;4.70;;;30.10;99.90;;;;;;6250067;23;21240;-81
2023/06/10 09:56:09;;;;;;;6.73;4.87;;;30.20;99.90;;;;;;6251535;23;20396;-83
2023/06/10 09:58:38;;;;;;;5.93;4.47;;;30.30;99.90;;;;;;6252479;23;20438;-82
2023/06/10 10:01:09;;;;;;;6.43;4.50;;;30.30;99.90;;;;;;6249899;23;20436;-81
2023/06/10 10:03:45;;;;;;;6.60;4.63;;;30.40;99.90;;;;;;6248784;22;20487;-81
2023/06/10 10:06:12;;;;;;;6.33;4.80;;;30.50;99.90;;;;;;6252673;23;20445;-84
2023/06/10 10:08:40;;;;;;;5.60;4.40;;;30.50;99.90;;;;;;6249608;23;20404;-83
2023/06/10 10:11:07;;;;;;;6.33;4.93;;;30.60;99.90;;;;;;6251136;23;20416;-83
2023/06/10 10:13:35;;;;;;;6.47;4.70;;;30.70;99.90;;;;;;6249788;23;20503;-82
2023/06/10 10:16:10;;;;;;;5.97;4.40;;;30.80;99.90;;;;;;6251840;23;20418;-83
2023/06/10 10:18:42;;;;;;;5.00;4.50;;;30.80;99.90;;;;;;6251637;23;20399;-83
2023/06/10 10:21:14;;;;;;;5.57;4.80;;;31.00;99.90;;;;;;6252649;23;20395;-83
2023/06/10 10:23:53;;;;;;;5.27;4.27;;;31.00;99.90;;;;;;6251745;23;20407;-83
2023/06/10 10:26:23;;;;;;;7.17;4.83;;;31.20;99.90;;;;;;6251429;23;20402;-83
2023/06/10 10:28:57;;;;;;;5.00;4.50;;;31.40;99.90;;;;;;6251834;23;20428;-83
2023/06/10 10:31:24;;;;;;;6.83;4.70;;;31.50;99.90;;;;;;6252092;23;20402;-83
2023/06/10 10:33:58;;;;;;;6.17;4.67;;;31.60;99.90;;;;;;6249873;23;20558;-81
2023/06/10 10:36:26;;;;;;;5.60;4.40;;;31.70;99.90;;;;;;6251915;23;20419;-82
2023/06/10 10:38:55;;;;;;;6.60;5.63;;;31.80;99.90;;;;;;6252193;23;20466;-82
2023/06/10 10:41:22;;;;;;;5.73;5.10;;;31.90;99.90;;;;;;6251597;23;20475;-82
2023/06/10 10:43:52;;;;;;;7.73;4.77;;;32.00;99.90;;;;;;6249884;23;20420;-82
2023/06/10 10:46:19;;;;;;;10.00;4.60;;;32.10;99.90;;;;;;6251770;23;20404;-82
2023/06/10 10:48:46;;;;;;;6.33;5.27;;;32.20;99.90;;;;;;6251121;23;20435;-81
2023/06/10 10:51:16;;;;;;;5.53;5.00;;;32.30;99.90;;;;;;6249285;23;20411;-82
2023/06/10 10:53:44;;;;;;;5.40;4.40;;;32.50;99.90;;;;;;6250177;23;20441;-82
2023/06/10 10:56:18;;;;;;;5.50;4.70;;;32.50;99.90;;;;;;6250541;23;20412;-82
2023/06/10 10:59:04;;;;;;;7.30;4.70;;;32.70;99.90;;;;;;6251022;23;20395;-79
2023/06/10 11:01:41;;;;;;;6.80;5.60;;;32.80;99.90;;;;;;6250934;23;20859;-79
2023/06/10 11:04:08;;;;;;;6.47;4.97;;;33.00;99.90;;;;;;6250364;23;20467;-79
2023/06/10 11:06:35;;;;;;;7.10;5.17;;;33.10;99.90;;;;;;6251081;23;20491;-79
2023/06/10 11:09:22;;;;;;;5.60;4.63;;;33.00;99.90;;;;;;6252654;23;20518;-80
2023/06/10 11:11:51;;;;;;;5.60;4.80;;;33.10;99.90;;;;;;6252503;23;20471;-82
2023/06/10 11:14:29;;;;;;;5.73;5.23;;;33.20;99.90;;;;;;6252107;23;20526;-81
2023/06/10 11:16:58;;;;;;;6.30;5.30;;;33.30;99.90;;;;;;6253397;23;20388;-80
2023/06/10 11:19:36;;;;;;;13.37;5.50;;;33.30;99.90;;;;;;6253290;23;20527;-82
2023/06/10 11:22:04;;;;;;;5.43;4.63;;;33.80;99.90;;;;;;6251969;23;20494;-80
2023/06/10 11:24:31;;;;;;;9.67;4.90;;;34.20;99.90;;;;;;6251865;23;20418;-81
2023/06/10 11:27:18;;;;;;;5.93;5.40;;;34.30;99.90;;;;;;6253326;23;20448;-81
2023/06/10 11:29:59;;;;;;;6.87;5.13;;;34.40;99.90;;;;;;6252684;23;20438;-81
2023/06/10 11:32:31;;;;;;;6.70;4.83;;;34.50;99.90;;;;;;6251079;23;20410;-81
2023/06/10 11:34:58;;;;;;;5.40;4.90;;;34.60;99.90;;;;;;6253957;23;20428;-82
2023/06/10 11:37:25;;;;;;;7.00;5.47;;;34.60;99.90;;;;;;6252309;23;20836;-81
2023/06/10 11:39:53;;;;;;;5.90;4.73;;;34.60;99.90;;;;;;6253122;23;20427;-81
2023/06/10 11:42:22;;;;;;;5.70;5.10;;;34.60;99.90;;;;;;6254627;23;20961;-80
2023/06/10 11:44:50;;;;;;;5.97;5.17;;;34.60;99.90;;;;;;6253653;23;20483;-81
2023/06/10 11:47:17;;;;;;;6.50;5.23;;;34.80;99.90;;;;;;6254219;23;20410;-80
2023/06/10 11:49:44;;;;;;;8.67;5.93;;;35.00;99.90;;;;;;6254644;23;20454;-82
2023/06/10 11:52:11;;;;;;;6.13;5.40;;;35.10;99.90;;;;;;6254403;23;20483;-80
2023/06/10 11:54:38;;;;;;;5.20;4.73;;;35.40;99.90;;;;;;6252542;23;20521;-82
2023/06/10 11:57:07;;;;;;;8.97;5.00;;;35.60;99.90;;;;;;6254338;23;20490;-81
2023/06/10 11:59:36;;;;;;;6.77;4.60;;;35.80;99.90;;;;;;6253914;23;20447;-82
2023/06/10 12:02:03;;;;;;;6.00;5.13;;;36.00;99.90;;;;;;6252070;22;20420;-82
2023/06/10 12:04:30;;;;;;;5.70;5.20;;;36.20;99.90;;;;;;6252062;23;21001;-82
2023/06/10 12:06:56;;;;;;;5.60;5.10;;;36.20;99.90;;;;;;6253170;23;20415;-82
2023/06/10 12:09:26;;;;;;;5.17;4.70;;;36.30;99.90;;;;;;6253697;23;20459;-81
2023/06/10 12:11:53;;;;;;;6.53;5.13;;;36.30;99.90;;;;;;6251562;23;20423;-82
2023/06/10 12:14:57;;;;;;;7.40;4.77;;;36.50;99.90;;;;;;6252583;23;20451;-81
2023/06/10 12:17:36;;;;;;;6.00;5.40;;;36.70;99.90;;;;;;6253966;23;20399;-82
2023/06/10 12:20:05;;;;;;;6.00;5.40;;;37.00;99.90;;;;;;6252196;23;20427;-84
2023/06/10 12:22:37;;;;;;;6.03;5.43;;;37.40;99.90;;;;;;6251263;23;20439;-82
2023/06/10 12:25:06;;;;;;;6.40;4.73;;;37.60;99.90;;;;;;6252980;23;20490;-81
2023/06/10 12:27:34;;;;;;;5.10;4.60;;;38.00;99.90;;;;;;6252704;23;20403;-82
2023/06/10 12:30:04;;;;;;;7.10;5.10;;;38.20;99.90;;;;;;6251449;23;20428;-82
2023/06/10 12:32:38;;;;;;;6.37;5.17;;;38.50;99.90;;;;;;6250665;23;20457;-84
2023/06/10 12:35:06;;;;;;;6.33;5.03;;;38.60;99.90;;;;;;6250888;23;20447;-81
2023/06/10 12:37:34;;;;;;;5.30;4.80;;;38.90;99.90;;;;;;6248367;23;20511;-80
2023/06/10 12:40:02;;;;;;;5.13;4.60;;;39.20;99.90;;;;;;6251143;23;20930;-82
2023/06/10 12:42:34;;;;;;;5.47;5.00;;;39.50;99.90;;;;;;6249917;23;20494;-80
2023/06/10 12:45:02;;;;;;;5.40;4.90;;;39.60;99.90;;;;;;6251566;23;20396;-82
2023/06/10 12:47:34;;;;;;;6.90;4.77;;;39.80;99.90;;;;;;6250579;23;20418;-82
2023/06/10 12:50:02;;;;;;;5.40;4.77;;;39.90;99.90;;;;;;6248842;23;20435;-84
2023/06/10 12:52:28;;;;;;;6.00;5.00;;;40.10;99.90;;;;;;6251188;23;20412;-83
2023/06/10 12:54:58;;;;;;;6.27;5.63;;;40.50;99.90;;;;;;6250814;23;21071;-80
2023/06/10 12:57:37;;;;;;;5.60;4.80;;;40.70;99.90;;;;;;6251801;23;20419;-83